createdAt,value
2022-08-08T00:00:53.448Z,25.13
2022-08-08T00:03:34.725Z,25.37
2022-08-08T00:06:10.865Z,25.10
2022-08-08T00:09:07.681Z,25.04
2022-08-08T00:12:09.890Z,24.81
2022-08-08T00:15:13.012Z,24.77
2022-08-08T00:18:03.760Z,24.32
2022-08-08T00:21:05.372Z,24.61
2022-08-08T00:23:47.754Z,24.67
2022-08-08T00:26:29.606Z,24.74
2022-08-08T00:29:46.323Z,24.71
2022-08-08T00:32:35.276Z,24.31
2022-08-08T00:35:34.533Z,24.13
2022-08-08T00:38:30.986Z,24.32
2022-08-08T00:41:17.151Z,24.32
2022-08-08T00:44:04.850Z,24.64
2022-08-08T00:46:57.026Z,24.38
2022-08-08T00:50:09.548Z,24.82
2022-08-08T00:52:51.348Z,24.79
2022-08-08T00:55:53.929Z,24.53
2022-08-08T00:59:00.969Z,24.61
2022-08-08T01:01:39.328Z,24.50
2022-08-08T01:04:32.961Z,24.67
2022-08-08T01:07:55.941Z,24.62
2022-08-08T01:11:01.384Z,24.02
2022-08-08T01:13:43.698Z,24.28
2022-08-08T01:16:37.280Z,24.41
2022-08-08T01:19:52.204Z,24.75
2022-08-08T01:23:05.591Z,24.65
2022-08-08T01:26:28.394Z,24.84
2022-08-08T01:29:06.470Z,25.05
2022-08-08T01:32:12.848Z,25.07
2022-08-08T01:34:51.589Z,24.34
2022-08-08T01:37:59.350Z,24.43
2022-08-08T01:40:52.582Z,24.69
2022-08-08T01:43:34.679Z,24.46
2022-08-08T01:46:39.855Z,24.23
2022-08-08T01:49:37.108Z,24.58
2022-08-08T01:53:11.231Z,24.64
2022-08-08T01:56:26.424Z,24.39
2022-08-08T01:58:13.165Z,24.64
2022-08-08T02:01:05.231Z,24.80
2022-08-08T02:03:55.601Z,24.42
2022-08-08T02:06:53.433Z,24.24
2022-08-08T02:10:01.837Z,24.24
2022-08-08T02:12:43.300Z,23.33
2022-08-08T02:15:30.639Z,23.39
2022-08-08T02:18:23.384Z,23.49
2022-08-08T02:21:53.281Z,23.47
2022-08-08T02:24:30.563Z,24.05
2022-08-08T02:27:09.177Z,23.55
2022-08-08T02:29:54.241Z,23.24
2022-08-08T02:32:47.712Z,23.87
2022-08-08T02:35:28.626Z,24.26
2022-08-08T02:38:25.419Z,24.46
2022-08-08T02:41:58.691Z,24.23
2022-08-08T02:44:58.681Z,24.23
2022-08-08T02:47:46.920Z,24.37
2022-08-08T02:50:52.855Z,24.45
2022-08-08T02:53:45.389Z,24.23
2022-08-08T02:56:19.971Z,24.25
2022-08-08T02:59:36.875Z,24.42
2022-08-08T03:02:33.353Z,24.10
2022-08-08T03:05:11.935Z,24.05
2022-08-08T03:08:03.365Z,24.00
2022-08-08T03:11:07.706Z,24.12
2022-08-08T03:16:01.858Z,23.78
2022-08-08T03:17:00.774Z,24.05
2022-08-08T03:19:51.038Z,24.24
2022-08-08T03:22:38.148Z,24.53
2022-08-08T03:25:14.585Z,24.44
2022-08-08T03:28:05.700Z,24.41
2022-08-08T03:30:35.312Z,24.60
2022-08-08T03:33:55.283Z,24.40
2022-08-08T03:36:13.700Z,24.08
2022-08-08T03:38:55.821Z,23.92
2022-08-08T03:42:11.720Z,24.25
2022-08-08T03:44:31.544Z,23.65
2022-08-08T03:47:14.075Z,23.77
2022-08-08T03:49:57.582Z,23.93
2022-08-08T03:52:31.990Z,23.99
2022-08-08T03:55:10.403Z,23.95
2022-08-08T03:58:34.857Z,24.06
2022-08-08T04:01:02.054Z,24.18
2022-08-08T04:03:59.951Z,23.61
2022-08-08T04:06:30.804Z,23.76
2022-08-08T04:09:08.859Z,23.43
2022-08-08T04:11:57.762Z,23.28
2022-08-08T04:14:34.492Z,23.48
2022-08-08T04:17:07.002Z,23.70
2022-08-08T04:19:44.726Z,23.73
2022-08-08T04:22:16.517Z,23.63
2022-08-08T04:24:48.691Z,23.57
2022-08-08T04:27:43.023Z,23.38
2022-08-08T04:30:17.698Z,23.83
2022-08-08T04:32:50.343Z,23.51
2022-08-08T04:35:22.745Z,23.47
2022-08-08T04:37:55.800Z,23.59
2022-08-08T04:40:26.884Z,23.68
2022-08-08T04:43:00.833Z,24.08
2022-08-08T04:45:30.196Z,23.98
2022-08-08T04:48:00.890Z,24.24
2022-08-08T04:50:38.304Z,24.18
2022-08-08T04:53:52.116Z,24.22
2022-08-08T04:55:57.668Z,24.36
2022-08-08T04:58:26.428Z,24.51
2022-08-08T05:00:55.491Z,24.17
2022-08-08T05:04:09.636Z,24.28
2022-08-08T05:06:25.293Z,24.45
2022-08-08T05:08:55.868Z,24.71
2022-08-08T05:11:26.242Z,24.89
2022-08-08T05:14:01.449Z,24.86
2022-08-08T05:16:54.214Z,24.82
2022-08-08T05:20:09.195Z,24.93
2022-08-08T05:22:10.226Z,24.97
2022-08-08T05:24:40.393Z,24.97
2022-08-08T05:27:10.503Z,24.96
2022-08-08T05:29:40.733Z,24.87
2022-08-08T05:32:12.845Z,25.01
2022-08-08T05:34:50.644Z,24.95
2022-08-08T05:37:28.361Z,25.11
2022-08-08T05:40:17.373Z,25.21
2022-08-08T05:42:53.827Z,25.23
2022-08-08T05:45:25.700Z,25.07
2022-08-08T05:48:08.743Z,24.95
2022-08-08T05:50:39.180Z,25.13
2022-08-08T05:53:23.128Z,25.44
2022-08-08T05:56:11.619Z,25.29
2022-08-08T05:58:57.966Z,25.12
2022-08-08T06:01:51.186Z,25.24
2022-08-08T06:04:28.047Z,25.24
2022-08-08T06:07:00.510Z,25.56
2022-08-08T06:09:58.020Z,25.60
2022-08-08T06:12:30.000Z,25.67
2022-08-08T06:15:02.680Z,25.95
2022-08-08T06:17:50.865Z,25.76
2022-08-08T06:20:25.923Z,25.66
2022-08-08T06:22:57.928Z,25.80
2022-08-08T06:25:33.431Z,26.11
2022-08-08T06:28:31.661Z,26.08
2022-08-08T06:31:03.047Z,25.99
2022-08-08T06:34:25.566Z,26.21
2022-08-08T06:36:53.810Z,26.06
2022-08-08T06:39:32.506Z,26.27
2022-08-08T06:42:09.498Z,26.10
2022-08-08T06:44:42.729Z,26.26
2022-08-08T06:47:11.224Z,26.26
2022-08-08T06:49:54.804Z,26.15
2022-08-08T06:52:27.866Z,26.30
2022-08-08T06:54:58.755Z,26.14
2022-08-08T06:57:29.260Z,25.87
2022-08-08T07:00:30.182Z,26.00
2022-08-08T07:03:04.847Z,26.12
2022-08-08T07:05:40.176Z,26.08
2022-08-08T07:08:12.319Z,26.11
2022-08-08T07:10:57.977Z,26.01
2022-08-08T07:13:35.608Z,26.20
2022-08-08T07:16:29.056Z,26.16
2022-08-08T07:19:12.477Z,26.33
2022-08-08T07:22:02.036Z,26.55
2022-08-08T07:24:42.121Z,26.57
2022-08-08T07:27:16.370Z,26.68
2022-08-08T07:29:59.087Z,26.50
2022-08-08T07:32:29.236Z,26.66
2022-08-08T07:35:02.631Z,26.86
2022-08-08T07:37:55.438Z,26.88
2022-08-08T07:40:29.000Z,27.13
2022-08-08T07:43:02.533Z,27.44
2022-08-08T07:46:05.487Z,27.43
2022-08-08T07:48:23.679Z,27.60
2022-08-08T07:50:58.727Z,27.20
2022-08-08T07:54:01.135Z,27.30
2022-08-08T07:56:36.388Z,27.14
2022-08-08T07:59:14.224Z,27.40
2022-08-08T08:02:37.147Z,27.57
2022-08-08T08:04:49.286Z,27.70
2022-08-08T08:07:32.313Z,27.81
2022-08-08T08:10:08.629Z,27.66
2022-08-08T08:12:43.746Z,27.95
2022-08-08T08:15:16.221Z,28.02
2022-08-08T08:17:48.849Z,28.14
2022-08-08T08:20:18.939Z,28.22
2022-08-08T08:22:47.480Z,28.31
2022-08-08T08:25:19.499Z,28.51
2022-08-08T08:28:09.385Z,28.63
2022-08-08T08:30:39.262Z,28.95
2022-08-08T08:33:11.161Z,28.92
2022-08-08T08:36:19.240Z,29.10
2022-08-08T08:38:29.389Z,29.32
2022-08-08T08:41:03.255Z,29.31
2022-08-08T08:43:42.985Z,29.41
2022-08-08T08:46:17.645Z,29.53
2022-08-08T08:48:49.484Z,28.97
2022-08-08T08:51:18.495Z,28.90
2022-08-08T08:53:54.744Z,28.75
2022-08-08T08:56:28.586Z,28.58
2022-08-08T08:58:58.536Z,28.77
2022-08-08T09:01:36.074Z,28.45
2022-08-08T09:04:31.017Z,28.37
2022-08-08T09:06:59.482Z,28.42
2022-08-08T09:09:38.956Z,28.68
2022-08-08T09:12:11.145Z,28.64
2022-08-08T09:14:42.893Z,28.52
2022-08-08T09:17:31.712Z,28.28
2022-08-08T09:21:59.852Z,28.30
2022-08-08T09:22:58.736Z,28.24
2022-08-08T09:25:35.522Z,28.02
2022-08-08T09:28:35.208Z,28.22
2022-08-08T09:31:21.135Z,28.10
2022-08-08T09:34:31.073Z,28.66
2022-08-08T09:37:10.161Z,28.79
2022-08-08T09:39:43.068Z,28.86
2022-08-08T09:42:22.277Z,28.95
2022-08-08T09:44:55.664Z,28.99
2022-08-08T09:47:26.622Z,28.83
2022-08-08T09:50:23.679Z,28.82
2022-08-08T09:52:57.477Z,28.90
2022-08-08T09:56:03.323Z,28.95
2022-08-08T09:58:26.064Z,28.65
2022-08-08T10:01:15.067Z,28.87
2022-08-08T10:03:58.559Z,28.94
2022-08-08T10:06:32.350Z,28.94
2022-08-08T10:09:01.958Z,28.89
2022-08-08T10:12:23.213Z,29.02
2022-08-08T10:14:28.576Z,28.96
2022-08-08T10:17:38.741Z,29.07
2022-08-08T10:20:00.813Z,29.10
2022-08-08T10:22:29.983Z,29.00
2022-08-08T10:25:16.196Z,28.88
2022-08-08T10:27:44.747Z,28.47
2022-08-08T10:30:16.804Z,28.60
2022-08-08T10:33:02.349Z,28.70
2022-08-08T10:36:07.495Z,28.78
2022-08-08T10:38:22.154Z,28.62
2022-08-08T10:40:53.721Z,28.73
2022-08-08T10:43:23.315Z,28.99
2022-08-08T10:45:57.563Z,29.22
2022-08-08T10:48:57.558Z,29.13
2022-08-08T10:51:40.998Z,29.02
2022-08-08T10:54:21.087Z,29.08
2022-08-08T10:57:03.779Z,28.94
2022-08-08T10:59:39.627Z,28.71
2022-08-08T11:02:09.597Z,28.50
2022-08-08T11:04:53.688Z,28.64
2022-08-08T11:07:40.607Z,28.37
2022-08-08T11:10:19.821Z,28.66
2022-08-08T11:13:27.802Z,28.32
2022-08-08T11:15:58.910Z,28.48
2022-08-08T11:18:30.629Z,28.36
2022-08-08T11:21:09.959Z,28.61
2022-08-08T11:24:01.860Z,28.95
2022-08-08T11:26:38.281Z,28.85
2022-08-08T11:29:23.544Z,28.95
2022-08-08T11:32:13.393Z,29.34
2022-08-08T11:35:29.560Z,29.50
2022-08-08T11:38:35.276Z,29.38
2022-08-08T11:40:26.826Z,29.41
2022-08-08T11:42:56.282Z,29.78
2022-08-08T11:45:24.158Z,29.68
2022-08-08T11:48:04.626Z,29.65
2022-08-08T11:50:34.835Z,29.49
2022-08-08T11:53:07.777Z,29.64
2022-08-08T11:55:49.002Z,29.29
2022-08-08T11:58:17.747Z,29.41
2022-08-08T12:00:53.499Z,28.94
2022-08-08T12:03:30.657Z,29.14
2022-08-08T12:05:59.606Z,29.19
2022-08-08T12:08:37.576Z,29.08
2022-08-08T12:11:14.342Z,28.89
2022-08-08T12:14:03.412Z,29.02
2022-08-08T12:16:44.758Z,29.13
2022-08-08T12:19:31.078Z,29.29
2022-08-08T12:22:09.206Z,29.33
2022-08-08T12:24:54.199Z,29.08
2022-08-08T12:27:27.042Z,28.98
2022-08-08T12:30:15.912Z,28.94
2022-08-08T12:32:50.638Z,28.98
2022-08-08T12:35:22.701Z,28.97
2022-08-08T12:38:09.162Z,28.93
2022-08-08T12:40:56.663Z,28.72
2022-08-08T12:43:43.551Z,28.95
2022-08-08T12:46:25.264Z,28.75
2022-08-08T12:49:25.841Z,28.92
2022-08-08T12:51:58.582Z,29.08
2022-08-08T12:54:37.099Z,28.80
2022-08-08T12:57:26.196Z,28.58
2022-08-08T13:00:06.182Z,28.54
2022-08-08T13:02:51.433Z,28.26
2022-08-08T13:05:26.250Z,28.37
2022-08-08T13:08:22.085Z,28.59
2022-08-08T13:10:55.668Z,28.21
2022-08-08T13:13:28.862Z,28.19
2022-08-08T13:16:25.297Z,28.15
2022-08-08T13:19:00.665Z,28.56
2022-08-08T13:21:55.391Z,28.66
2022-08-08T13:24:41.987Z,28.77
2022-08-08T13:27:16.691Z,29.05
2022-08-08T13:30:04.004Z,28.95
2022-08-08T13:32:36.243Z,29.06
2022-08-08T13:35:24.209Z,28.94
2022-08-08T13:38:06.881Z,28.74
2022-08-08T13:40:41.414Z,29.06
2022-08-08T13:43:09.528Z,29.07
2022-08-08T13:45:37.723Z,29.34
2022-08-08T13:48:12.428Z,29.69
2022-08-08T13:50:55.265Z,29.81
2022-08-08T13:53:34.212Z,29.70
2022-08-08T13:56:11.718Z,30.03
2022-08-08T13:58:58.680Z,29.99
2022-08-08T14:01:33.062Z,30.28
2022-08-08T14:04:23.093Z,30.37
2022-08-08T14:07:03.329Z,29.76
2022-08-08T14:10:06.108Z,29.90
2022-08-08T14:12:28.014Z,29.63
2022-08-08T14:14:56.414Z,29.26
2022-08-08T14:17:57.765Z,29.19
2022-08-08T14:20:15.817Z,29.20
2022-08-08T14:23:10.236Z,29.12
2022-08-08T14:25:54.035Z,28.80
2022-08-08T14:28:28.985Z,29.11
2022-08-08T14:31:09.406Z,28.92
2022-08-08T14:33:37.791Z,29.19
2022-08-08T14:36:13.320Z,29.37
2022-08-08T14:38:52.350Z,29.46
2022-08-08T14:41:45.544Z,29.42
2022-08-08T14:44:17.087Z,29.52
2022-08-08T14:47:00.368Z,29.38
2022-08-08T14:49:51.505Z,29.35
2022-08-08T14:52:28.600Z,29.44
2022-08-08T14:54:57.366Z,29.37
2022-08-08T14:58:05.851Z,29.31
2022-08-08T15:00:16.213Z,28.60
2022-08-08T15:02:58.798Z,28.80
2022-08-08T15:05:52.833Z,28.83
2022-08-08T15:08:35.007Z,28.83
2022-08-08T15:11:10.167Z,28.89
2022-08-08T15:14:01.847Z,28.53
2022-08-08T15:16:34.774Z,28.79
2022-08-08T15:19:04.902Z,28.58
2022-08-08T15:21:32.847Z,28.31
2022-08-08T15:24:00.934Z,28.48
2022-08-08T15:26:29.686Z,28.62
2022-08-08T15:28:57.563Z,28.63
2022-08-08T15:32:03.096Z,28.48
2022-08-08T15:34:29.896Z,28.43
2022-08-08T15:37:03.528Z,28.49
2022-08-08T15:39:38.062Z,28.43
2022-08-08T15:42:10.357Z,28.54
2022-08-08T15:44:42.579Z,28.42
2022-08-08T15:47:16.245Z,28.23
2022-08-08T15:49:48.654Z,28.08
2022-08-08T15:52:20.466Z,28.41
2022-08-08T15:54:51.881Z,28.23
2022-08-08T15:57:23.183Z,27.71
2022-08-08T16:00:06.596Z,28.21
2022-08-08T16:02:50.389Z,28.31
2022-08-08T16:05:23.770Z,28.23
2022-08-08T16:07:54.386Z,28.36
2022-08-08T16:13:11.972Z,28.05
2022-08-08T16:13:34.932Z,28.10
2022-08-08T16:16:13.187Z,28.03
2022-08-08T16:18:57.163Z,27.92
2022-08-08T16:21:32.056Z,27.95
2022-08-08T16:24:05.976Z,27.94
2022-08-08T16:26:36.914Z,28.07
2022-08-08T16:29:16.267Z,27.96
2022-08-08T16:31:50.082Z,28.33
2022-08-08T16:34:21.199Z,28.28
2022-08-08T16:36:50.896Z,28.43
2022-08-08T16:40:00.759Z,28.06
2022-08-08T16:42:17.967Z,28.19
2022-08-08T16:44:54.700Z,28.19
2022-08-08T16:47:40.488Z,28.05
2022-08-08T16:50:15.663Z,28.02
2022-08-08T16:55:22.814Z,28.10
2022-08-08T16:55:55.417Z,27.94
2022-08-08T16:58:25.795Z,27.85
2022-08-08T17:00:58.128Z,27.58
2022-08-08T17:03:58.567Z,27.21
2022-08-08T17:06:35.352Z,26.88
2022-08-08T17:09:04.119Z,27.13
2022-08-08T17:11:39.206Z,27.04
2022-08-08T17:14:19.602Z,27.11
2022-08-08T17:16:57.222Z,27.28
2022-08-08T17:19:30.300Z,26.88
2022-08-08T17:22:01.887Z,26.71
2022-08-08T17:24:31.042Z,26.56
2022-08-08T17:27:00.673Z,26.70
2022-08-08T17:29:33.677Z,25.98
2022-08-08T17:32:05.928Z,26.24
2022-08-08T17:35:14.624Z,26.00
2022-08-08T17:37:27.595Z,26.19
2022-08-08T17:40:05.968Z,26.25
2022-08-08T17:42:47.325Z,25.92
2022-08-08T17:45:23.234Z,25.96
2022-08-08T17:47:54.586Z,25.78
2022-08-08T17:50:23.901Z,25.99
2022-08-08T17:52:53.183Z,26.20
2022-08-08T17:56:04.874Z,25.99
2022-08-08T17:58:11.911Z,25.91
2022-08-08T18:00:41.545Z,25.58
2022-08-08T18:03:13.334Z,25.69
2022-08-08T18:05:48.341Z,25.76
2022-08-08T18:08:25.239Z,25.72
2022-08-08T18:11:15.504Z,25.04
2022-08-08T18:13:46.324Z,24.41
2022-08-08T18:16:16.991Z,24.43
2022-08-08T18:18:56.240Z,24.39
2022-08-08T18:21:58.932Z,24.43
2022-08-08T18:24:21.416Z,24.51
2022-08-08T18:26:53.824Z,24.52
2022-08-08T18:29:32.928Z,24.37
2022-08-08T18:32:07.577Z,24.35
2022-08-08T18:34:40.370Z,24.59
2022-08-08T18:37:17.740Z,24.44
2022-08-08T18:40:00.530Z,24.40
2022-08-08T18:42:29.151Z,24.07
2022-08-08T18:44:58.500Z,24.05
2022-08-08T18:47:33.414Z,23.80
2022-08-08T18:50:03.022Z,23.60
2022-08-08T18:52:36.747Z,23.58
2022-08-08T18:55:10.391Z,23.40
2022-08-08T18:57:43.505Z,23.20
2022-08-08T19:00:20.952Z,23.61
2022-08-08T19:02:56.690Z,23.10
2022-08-08T19:05:34.543Z,23.37
2022-08-08T19:08:24.640Z,23.71
2022-08-08T19:11:01.746Z,23.69
2022-08-08T19:13:52.821Z,23.76
2022-08-08T19:16:23.659Z,23.79
2022-08-08T19:19:02.231Z,23.48
2022-08-08T19:21:33.264Z,23.84
2022-08-08T19:24:38.673Z,23.36
2022-08-08T19:27:06.990Z,23.62
2022-08-08T19:29:40.704Z,23.63
2022-08-08T19:32:13.069Z,23.51
2022-08-08T19:34:49.435Z,23.23
2022-08-08T19:37:42.168Z,23.11
2022-08-08T19:40:14.641Z,22.79
2022-08-08T19:42:45.749Z,23.22
2022-08-08T19:45:14.488Z,22.73
2022-08-08T19:48:02.111Z,22.99
2022-08-08T19:50:30.761Z,23.31
2022-08-08T19:52:59.758Z,23.29
2022-08-08T19:55:28.004Z,22.97
2022-08-08T19:58:04.076Z,22.93
2022-08-08T20:00:37.197Z,23.14
2022-08-08T20:03:15.290Z,22.93
2022-08-08T20:06:15.394Z,22.77
2022-08-08T20:08:48.343Z,23.12
2022-08-08T20:11:21.953Z,22.63
2022-08-08T20:14:31.855Z,22.68
2022-08-08T20:16:41.106Z,22.54
2022-08-08T20:19:12.681Z,22.73
2022-08-08T20:21:43.287Z,22.38
2022-08-08T20:24:16.963Z,22.74
2022-08-08T20:26:49.409Z,22.93
2022-08-08T20:29:20.915Z,22.99
2022-08-08T20:32:09.826Z,23.05
2022-08-08T20:34:47.686Z,22.99
2022-08-08T20:37:16.518Z,23.20
2022-08-08T20:39:51.273Z,22.97
2022-08-08T20:42:23.696Z,22.98
2022-08-08T20:44:59.103Z,23.12
2022-08-08T20:47:36.114Z,22.85
2022-08-08T20:50:06.152Z,23.19
2022-08-08T20:52:38.778Z,23.16
2022-08-08T20:55:16.288Z,23.21
2022-08-08T20:57:54.479Z,23.23
2022-08-08T21:00:26.994Z,22.98
2022-08-08T21:02:55.366Z,23.16
2022-08-08T21:05:23.618Z,23.48
2022-08-08T21:08:33.587Z,23.33
2022-08-08T21:10:48.335Z,23.07
2022-08-08T21:13:17.920Z,23.29
2022-08-08T21:16:06.000Z,23.22
2022-08-08T21:18:34.284Z,23.32
2022-08-08T21:21:20.558Z,23.35
2022-08-08T21:24:19.226Z,23.30
2022-08-08T21:26:54.865Z,23.37
2022-08-08T21:30:05.728Z,23.57
2022-08-08T21:32:24.883Z,23.39
2022-08-08T21:34:56.793Z,23.55
2022-08-08T21:37:53.743Z,23.53
2022-08-08T21:40:31.228Z,23.56
2022-08-08T21:43:00.270Z,23.66
2022-08-08T21:48:01.787Z,23.66
2022-08-08T21:48:21.113Z,23.59
2022-08-08T21:50:51.780Z,23.78
2022-08-08T21:54:32.492Z,23.74
2022-08-08T21:56:19.747Z,24.11
2022-08-08T21:58:58.683Z,23.81
2022-08-08T22:01:41.183Z,23.74
2022-08-08T22:04:12.505Z,23.98
2022-08-08T22:06:40.924Z,23.77
2022-08-08T22:09:09.899Z,23.38
2022-08-08T22:12:03.163Z,23.73
2022-08-08T22:14:30.917Z,23.92
2022-08-08T22:17:01.697Z,23.98
2022-08-08T22:20:11.386Z,23.90
2022-08-08T22:22:28.688Z,23.67
2022-08-08T22:24:58.813Z,23.78
2022-08-08T22:28:00.908Z,24.11
2022-08-08T22:30:29.677Z,24.04
2022-08-08T22:33:02.527Z,24.15
2022-08-08T22:36:03.970Z,24.01
2022-08-08T22:38:29.306Z,23.90
2022-08-08T22:40:59.437Z,23.73
2022-08-08T22:43:39.219Z,23.68
2022-08-08T22:46:09.104Z,23.94
2022-08-08T22:48:40.004Z,24.07
2022-08-08T22:51:12.802Z,24.08
2022-08-08T22:54:34.035Z,23.98
2022-08-08T22:56:42.375Z,24.14
2022-08-08T22:59:25.810Z,23.94
2022-08-08T23:02:02.622Z,23.88
2022-08-08T23:04:35.625Z,23.73
2022-08-08T23:07:05.264Z,23.61
2022-08-08T23:09:39.485Z,23.56
2022-08-08T23:12:40.685Z,23.46
2022-08-08T23:16:42.019Z,23.51
2022-08-08T23:18:02.415Z,23.68
2022-08-08T23:20:35.619Z,23.52
2022-08-08T23:23:05.846Z,23.35
2022-08-08T23:25:48.218Z,23.28
2022-08-08T23:28:19.154Z,23.59
2022-08-08T23:30:51.320Z,22.97
2022-08-08T23:34:17.163Z,22.26
2022-08-08T23:36:21.015Z,21.47
2022-08-08T23:38:57.840Z,21.55
2022-08-08T23:41:31.679Z,21.26
2022-08-08T23:44:18.507Z,21.65
2022-08-08T23:49:03.598Z,21.94
2022-08-08T23:49:42.539Z,21.23
2022-08-08T23:52:22.107Z,21.40
2022-08-08T23:55:07.719Z,21.12
2022-08-08T23:57:52.371Z,21.21
